ADDS METAR Data

Data at: 1833 UTC 20 Jul 2018

METAR for:KSFZ (Pawtucket/NC State A, RI, US)
Text:KSFZ 201756Z AUTO VRB05KT 10SM CLR 28/12 A3017 RMK AO2 SLP161 T02780122 10283 20194 57009
Temperature: 27.8°C ( 82°F)
Dewpoint: 12.2°C ( 54°F) [RH = 38%]
Pressure (altimeter):30.17 inches Hg (1021.8 mb) [Sea level pressure: 1016.1 mb]
Winds:variable direction winds at 6 MPH (5 knots; 2.6 m/s)
Visibility:10 or more sm (16+ km)
Ceiling:at least 12,000 feet AGL
Clouds:sky clear below 12,000 feet AGL
QC Flag:automated observation with no human augmentation